createdAt,value
2023-04-10T00:02:27.123Z,3.53
2023-04-10T00:04:55.317Z,3.20
2023-04-10T00:07:23.288Z,3.87
2023-04-10T00:09:51.260Z,3.10
2023-04-10T00:12:20.784Z,3.80
2023-04-10T00:14:48.682Z,3.80
2023-04-10T00:17:16.633Z,4.07
2023-04-10T00:19:44.515Z,3.97
2023-04-10T00:22:12.509Z,4.30
2023-04-10T00:24:40.490Z,3.90
2023-04-10T00:27:08.404Z,4.13
2023-04-10T00:29:37.725Z,4.17
2023-04-10T00:32:05.653Z,4.10
2023-04-10T00:34:33.616Z,4.67
2023-04-10T00:37:01.536Z,4.37
2023-04-10T00:39:29.409Z,4.27
2023-04-10T00:41:57.766Z,4.07
2023-04-10T00:44:25.628Z,4.30
2023-04-10T00:46:55.017Z,4.50
2023-04-10T00:49:23.013Z,4.73
2023-04-10T00:51:50.937Z,4.50
2023-04-10T00:54:19.048Z,4.13
2023-04-10T00:56:47.828Z,4.67
2023-04-10T00:59:15.748Z,4.53
2023-04-10T01:01:43.787Z,5.00
2023-04-10T01:04:13.494Z,4.57
2023-04-10T01:06:50.295Z,4.17
2023-04-10T01:09:21.563Z,16.53
2023-04-10T01:11:52.638Z,12.77
2023-04-10T01:14:23.549Z,5.70
2023-04-10T01:16:55.119Z,4.50
2023-04-10T01:19:31.460Z,4.53
2023-04-10T01:22:00.758Z,4.30
2023-04-10T01:24:38.659Z,4.60
2023-04-10T01:27:13.876Z,4.40
2023-04-10T01:29:45.591Z,4.57
2023-04-10T01:32:15.049Z,5.60
2023-04-10T01:34:45.239Z,5.07
2023-04-10T01:37:15.232Z,4.50
2023-04-10T01:39:44.005Z,5.17
2023-04-10T01:42:13.109Z,4.43
2023-04-10T01:44:43.152Z,4.30
2023-04-10T01:47:15.757Z,4.13
2023-04-10T01:49:45.195Z,5.20
2023-04-10T01:52:13.306Z,4.07
2023-04-10T01:54:41.522Z,4.47
2023-04-10T01:57:10.388Z,4.40
2023-04-10T01:59:40.485Z,4.30
2023-04-10T02:02:11.874Z,4.70
2023-04-10T02:04:41.412Z,4.57
2023-04-10T02:07:12.228Z,4.93
2023-04-10T02:09:59.666Z,4.80
2023-04-10T02:12:30.108Z,4.77
2023-04-10T02:15:00.725Z,4.90
2023-04-10T02:17:29.951Z,4.87
2023-04-10T02:19:59.718Z,4.17
2023-04-10T02:22:28.056Z,4.33
2023-04-10T02:24:56.208Z,4.20
2023-04-10T02:27:28.732Z,4.57
2023-04-10T02:29:57.032Z,5.13
2023-04-10T02:32:25.093Z,4.13
2023-04-10T02:34:53.062Z,4.10
2023-04-10T02:37:22.462Z,4.60
2023-04-10T02:39:50.571Z,4.20
2023-04-10T02:42:18.535Z,4.50
2023-04-10T02:44:46.561Z,4.00
2023-04-10T02:47:14.503Z,4.27
2023-04-10T02:49:42.382Z,4.37
2023-04-10T02:52:10.387Z,4.57
2023-04-10T02:54:39.688Z,4.30
2023-04-10T02:57:07.598Z,4.20
2023-04-10T02:59:35.581Z,4.40
2023-04-10T03:02:03.686Z,4.63
2023-04-10T03:04:33.343Z,5.00
2023-04-10T03:07:01.387Z,4.87
2023-04-10T03:09:29.401Z,4.50
2023-04-10T03:11:58.684Z,4.83
2023-04-10T03:14:27.298Z,4.73
2023-04-10T03:16:55.255Z,4.97
2023-04-10T03:19:23.283Z,4.37
2023-04-10T03:21:51.867Z,5.03
2023-04-10T03:24:19.849Z,5.10
2023-04-10T03:26:47.777Z,6.07
2023-04-10T03:29:19.228Z,5.80
2023-04-10T03:31:47.397Z,4.53
2023-04-10T03:34:15.358Z,4.33
2023-04-10T03:36:43.253Z,5.40
2023-04-10T03:39:11.274Z,4.57
2023-04-10T03:41:39.185Z,4.67
2023-04-10T03:44:07.077Z,5.43
2023-04-10T03:46:36.481Z,4.37
2023-04-10T03:49:04.567Z,5.30
2023-04-10T03:51:32.598Z,4.90
2023-04-10T03:54:00.956Z,4.73
2023-04-10T03:56:28.954Z,4.60
2023-04-10T03:58:56.897Z,5.17
2023-04-10T04:01:24.906Z,5.20
2023-04-10T04:03:54.616Z,5.30
2023-04-10T04:06:22.859Z,5.17
2023-04-10T04:08:50.798Z,5.20
2023-04-10T04:11:18.687Z,4.83
2023-04-10T04:13:46.597Z,4.53
2023-04-10T04:16:14.537Z,4.90
2023-04-10T04:18:42.500Z,5.57
2023-04-10T04:21:11.789Z,4.90
2023-04-10T04:23:39.759Z,5.20
2023-04-10T04:26:07.873Z,5.47
2023-04-10T04:28:35.807Z,4.83
2023-04-10T04:31:03.911Z,4.90
2023-04-10T04:33:31.837Z,4.67
2023-04-10T04:35:59.817Z,4.47
2023-04-10T04:38:29.151Z,4.77
2023-04-10T04:40:57.066Z,3.83
2023-04-10T04:43:25.049Z,4.93
2023-04-10T04:45:52.962Z,4.80
2023-04-10T04:48:20.928Z,4.57
2023-04-10T04:50:48.924Z,4.37
2023-04-10T04:53:16.854Z,4.27
2023-04-10T04:55:46.252Z,4.23
2023-04-10T04:58:14.245Z,4.50
2023-04-10T05:00:42.126Z,4.17
2023-04-10T05:03:10.164Z,5.03
2023-04-10T05:05:38.112Z,4.60
2023-04-10T05:08:06.264Z,4.53
2023-04-10T05:10:34.172Z,4.80
2023-04-10T05:13:03.588Z,4.40
2023-04-10T05:15:31.648Z,4.30
2023-04-10T05:17:59.629Z,4.43
2023-04-10T05:20:27.617Z,4.50
2023-04-10T05:22:55.524Z,3.53
2023-04-10T05:25:23.393Z,4.13
2023-04-10T05:27:51.293Z,4.40
2023-04-10T05:30:20.896Z,4.40
2023-04-10T05:32:48.861Z,4.50
2023-04-10T05:35:16.925Z,4.53
2023-04-10T05:37:44.878Z,4.00
2023-04-10T05:40:13.081Z,4.27
2023-04-10T05:42:41.105Z,3.97
2023-04-10T05:45:09.315Z,3.83
2023-04-10T05:47:38.744Z,3.90
2023-04-10T05:50:06.948Z,4.73
2023-04-10T05:52:34.849Z,4.10
2023-04-10T05:55:02.980Z,4.23
2023-04-10T05:57:31.036Z,3.77
2023-04-10T05:59:58.940Z,4.97
2023-04-10T06:02:27.805Z,3.83
2023-04-10T06:04:57.776Z,4.20
2023-04-10T06:07:25.791Z,3.97
2023-04-10T06:09:53.757Z,3.90
2023-04-10T06:12:21.687Z,3.80
2023-04-10T06:14:49.771Z,3.70
2023-04-10T06:17:17.901Z,3.73
2023-04-10T06:19:45.884Z,3.40
2023-04-10T06:22:15.233Z,3.90
2023-04-10T06:24:43.199Z,3.60
2023-04-10T06:27:12.442Z,3.90
2023-04-10T06:29:40.594Z,4.10
2023-04-10T06:32:08.519Z,4.13
2023-04-10T06:34:36.471Z,3.67
2023-04-10T06:37:04.394Z,4.57
2023-04-10T06:39:33.773Z,4.47
2023-04-10T06:42:02.715Z,3.77
2023-04-10T06:44:30.737Z,4.17
2023-04-10T06:46:58.675Z,4.53
2023-04-10T06:49:26.794Z,4.00
2023-04-10T06:51:55.021Z,4.37
2023-04-10T06:54:22.949Z,4.27
2023-04-10T06:56:52.275Z,4.30
2023-04-10T06:59:20.154Z,4.50
2023-04-10T07:01:48.077Z,3.97
2023-04-10T07:04:16.151Z,4.60
2023-04-10T07:06:44.123Z,3.97
2023-04-10T07:09:12.087Z,4.00
2023-04-10T07:11:40.002Z,4.00
2023-04-10T07:14:09.355Z,3.77
2023-04-10T07:16:37.413Z,4.17
2023-04-10T07:19:05.409Z,3.63
2023-04-10T07:21:33.347Z,4.37
2023-04-10T07:24:01.334Z,3.77
2023-04-10T07:26:29.252Z,4.20
2023-04-10T07:28:57.178Z,4.50
2023-04-10T07:31:26.609Z,4.00
2023-04-10T07:33:54.695Z,4.80
2023-04-10T07:36:22.603Z,4.90
2023-04-10T07:38:50.814Z,3.77
2023-04-10T07:41:18.764Z,4.17
2023-04-10T07:43:46.679Z,4.40
2023-04-10T07:46:14.821Z,4.57
2023-04-10T07:48:44.459Z,4.53
2023-04-10T07:51:12.483Z,5.03
2023-04-10T07:53:40.828Z,4.37
2023-04-10T07:56:10.958Z,4.30
2023-04-10T07:58:39.946Z,4.97
2023-04-10T08:01:08.126Z,4.93
2023-04-10T08:03:39.332Z,4.83
2023-04-10T08:06:09.550Z,4.77
2023-04-10T08:08:37.820Z,4.43
2023-04-10T08:11:06.253Z,4.37
2023-04-10T08:13:34.236Z,4.37
2023-04-10T08:16:02.164Z,4.47
2023-04-10T08:18:30.232Z,4.10
2023-04-10T08:20:58.135Z,3.70
2023-04-10T08:23:27.545Z,3.23
2023-04-10T08:25:55.449Z,4.00
2023-04-10T08:28:23.375Z,3.80
2023-04-10T08:30:51.486Z,3.53
2023-04-10T08:33:19.482Z,3.27
2023-04-10T08:35:48.661Z,3.70
2023-04-10T08:38:16.728Z,3.70
2023-04-10T08:40:46.078Z,3.67
2023-04-10T08:43:14.050Z,4.00
2023-04-10T08:45:42.392Z,3.50
2023-04-10T08:48:11.877Z,3.93
2023-04-10T08:50:42.563Z,3.27
2023-04-10T08:53:12.825Z,3.33
2023-04-10T08:55:40.886Z,3.10
2023-04-10T08:58:11.448Z,3.30
2023-04-10T09:00:40.016Z,3.50
2023-04-10T09:03:11.896Z,3.50
2023-04-10T09:05:40.012Z,2.90
2023-04-10T09:08:08.846Z,2.57
2023-04-10T09:10:36.764Z,2.90
2023-04-10T09:13:04.900Z,2.97
2023-04-10T09:15:54.261Z,3.00
2023-04-10T09:18:22.263Z,2.70
2023-04-10T09:20:51.687Z,3.47
2023-04-10T09:23:23.091Z,3.00
2023-04-10T09:25:51.332Z,3.17
2023-04-10T09:28:19.354Z,2.93
2023-04-10T09:30:48.741Z,3.20
2023-04-10T09:33:27.704Z,2.93
2023-04-10T09:35:55.983Z,2.90
2023-04-10T09:38:24.064Z,2.43
2023-04-10T09:40:53.654Z,2.27
2023-04-10T09:43:23.689Z,2.77
2023-04-10T09:45:54.381Z,2.57
2023-04-10T09:48:23.240Z,2.57
2023-04-10T09:50:51.609Z,3.10
2023-04-10T09:53:20.593Z,3.07
2023-04-10T09:55:49.006Z,3.00
2023-04-10T09:58:17.557Z,2.80
2023-04-10T10:00:46.139Z,2.80
2023-04-10T10:03:16.109Z,2.70
2023-04-10T10:05:45.841Z,3.03
2023-04-10T10:08:14.462Z,2.97
2023-04-10T10:10:45.885Z,2.73
2023-04-10T10:13:17.965Z,3.10
2023-04-10T10:15:48.264Z,2.70
2023-04-10T10:18:22.106Z,2.33
2023-04-10T10:20:51.631Z,2.47
2023-04-10T10:23:20.773Z,2.40
2023-04-10T10:25:50.117Z,2.53
2023-04-10T10:28:19.032Z,2.27
2023-04-10T10:30:48.260Z,3.00
2023-04-10T10:33:16.335Z,2.30
2023-04-10T10:35:45.801Z,2.67
2023-04-10T10:38:14.048Z,2.27
2023-04-10T10:40:44.450Z,2.30
2023-04-10T10:43:14.980Z,2.30
2023-04-10T10:45:48.140Z,2.13
2023-04-10T10:48:16.138Z,2.10
2023-04-10T10:50:57.641Z,2.00
2023-04-10T10:53:35.768Z,2.33
2023-04-10T10:56:22.776Z,2.23
2023-04-10T10:58:51.430Z,2.40
2023-04-10T11:01:20.540Z,2.40
2023-04-10T11:03:48.573Z,1.97
2023-04-10T11:06:19.855Z,2.30
2023-04-10T11:08:48.445Z,2.00
2023-04-10T11:11:17.342Z,2.17
2023-04-10T11:14:00.065Z,2.00
2023-04-10T11:16:44.014Z,2.10
2023-04-10T11:19:15.920Z,2.00
2023-04-10T11:22:09.161Z,2.13
2023-04-10T11:24:56.401Z,2.00
2023-04-10T11:27:46.491Z,1.90
2023-04-10T11:30:30.790Z,1.83
2023-04-10T11:32:58.894Z,1.70
2023-04-10T11:35:27.203Z,2.53
2023-04-10T11:38:09.387Z,1.90
2023-04-10T11:40:37.306Z,1.63
2023-04-10T11:43:16.406Z,1.80
2023-04-10T11:45:44.421Z,1.70
2023-04-10T11:48:12.415Z,1.77
2023-04-10T11:50:40.537Z,2.20
2023-04-10T11:53:18.624Z,1.90
2023-04-10T11:55:46.880Z,2.10
2023-04-10T11:58:28.824Z,1.70
2023-04-10T12:00:57.451Z,1.80
2023-04-10T12:03:35.237Z,2.00
2023-04-10T12:06:03.429Z,1.97
2023-04-10T12:08:34.841Z,2.17
2023-04-10T12:11:03.677Z,1.40
2023-04-10T12:13:33.247Z,1.30
2023-04-10T12:16:01.922Z,1.90
2023-04-10T12:18:30.786Z,1.67
2023-04-10T12:20:59.590Z,1.63
2023-04-10T12:23:28.169Z,1.80
2023-04-10T12:26:07.994Z,1.60
2023-04-10T12:28:39.017Z,1.80
2023-04-10T12:31:07.586Z,1.77
2023-04-10T12:33:38.531Z,2.17
2023-04-10T12:36:06.714Z,1.70
2023-04-10T12:38:41.648Z,1.70
2023-04-10T12:41:10.128Z,1.60
2023-04-10T12:43:40.478Z,1.87
2023-04-10T12:46:09.519Z,1.87
2023-04-10T12:48:37.694Z,1.70
2023-04-10T12:51:05.937Z,1.37
2023-04-10T12:53:43.960Z,2.07
2023-04-10T12:56:12.450Z,1.70
2023-04-10T12:58:44.577Z,1.57
2023-04-10T13:01:14.466Z,1.50
2023-04-10T13:03:42.588Z,1.70
2023-04-10T13:06:10.703Z,1.57
2023-04-10T13:08:38.654Z,1.90
2023-04-10T13:11:07.293Z,1.43
2023-04-10T13:13:35.688Z,1.50
2023-04-10T13:16:05.138Z,2.00
2023-04-10T13:18:33.201Z,1.50
2023-04-10T13:21:01.149Z,1.73
2023-04-10T13:23:29.017Z,1.70
2023-04-10T13:25:59.175Z,1.60
2023-04-10T13:28:27.148Z,1.57
2023-04-10T13:30:55.010Z,1.70
2023-04-10T13:33:25.078Z,1.70
2023-04-10T13:35:53.115Z,1.60
2023-04-10T13:38:21.464Z,1.50
2023-04-10T13:40:49.487Z,1.33
2023-04-10T13:43:17.410Z,1.20
2023-04-10T13:45:45.352Z,1.60
2023-04-10T13:48:13.217Z,2.00
2023-04-10T13:50:42.543Z,1.30
2023-04-10T13:53:10.540Z,1.40
2023-04-10T13:55:40.511Z,1.30
2023-04-10T13:58:08.387Z,1.20
2023-04-10T14:00:36.520Z,1.47
2023-04-10T14:03:04.625Z,1.33
2023-04-10T14:05:32.637Z,1.30
2023-04-10T14:08:01.998Z,1.40
2023-04-10T14:10:30.095Z,1.40
2023-04-10T14:12:58.056Z,1.63
2023-04-10T14:15:26.032Z,1.40
2023-04-10T14:17:54.079Z,1.17
2023-04-10T14:20:22.124Z,1.10
2023-04-10T14:22:50.375Z,1.23
2023-04-10T14:25:19.766Z,1.20
2023-04-10T14:27:47.713Z,1.30
2023-04-10T14:30:15.700Z,0.90
2023-04-10T14:32:44.076Z,1.30
2023-04-10T14:35:12.383Z,1.27
2023-04-10T14:37:40.321Z,1.60
2023-04-10T14:40:09.420Z,1.37
2023-04-10T14:42:38.840Z,1.50
2023-04-10T14:45:07.307Z,1.37
2023-04-10T14:47:36.419Z,1.50
2023-04-10T14:50:04.585Z,1.43
2023-04-10T14:52:32.526Z,1.83
2023-04-10T14:55:00.460Z,1.70
2023-04-10T14:57:29.788Z,1.33
2023-04-10T15:00:01.453Z,1.43
2023-04-10T15:02:30.165Z,1.73
2023-04-10T15:04:58.322Z,1.60
2023-04-10T15:07:28.422Z,1.20
2023-04-10T15:09:57.762Z,1.30
2023-04-10T15:12:26.142Z,1.23
2023-04-10T15:14:54.103Z,2.07
2023-04-10T15:17:24.604Z,2.00
2023-04-10T15:19:52.644Z,1.40
2023-04-10T15:22:20.579Z,2.20
2023-04-10T15:24:50.817Z,1.50
2023-04-10T15:27:20.386Z,1.60
2023-04-10T15:29:48.330Z,1.17
2023-04-10T15:32:16.216Z,3.00
2023-04-10T15:34:45.757Z,1.77
2023-04-10T15:37:13.695Z,1.80
2023-04-10T15:39:41.570Z,3.23
2023-04-10T15:42:09.523Z,2.07
2023-04-10T15:44:37.418Z,1.40
2023-04-10T15:47:05.347Z,12.90
2023-04-10T15:49:38.403Z,6.67
2023-04-10T15:52:08.310Z,6.37
2023-04-10T15:54:36.245Z,3.10
2023-04-10T15:57:04.462Z,4.67
2023-04-10T15:59:33.600Z,2.47
2023-04-10T16:02:01.675Z,4.57
2023-04-10T16:04:30.301Z,1.70
2023-04-10T16:06:58.289Z,3.90
2023-04-10T16:09:27.785Z,1.83
2023-04-10T16:11:56.334Z,3.77
2023-04-10T16:14:24.340Z,1.63
2023-04-10T16:16:52.402Z,1.90
2023-04-10T16:19:20.303Z,1.70
2023-04-10T16:21:48.267Z,2.23
2023-04-10T16:24:16.323Z,1.50
2023-04-10T16:26:45.657Z,2.30
2023-04-10T16:29:13.627Z,1.47
2023-04-10T16:31:41.595Z,1.40
2023-04-10T16:34:09.552Z,1.60
2023-04-10T16:36:37.474Z,1.40
2023-04-10T16:39:05.944Z,6.57
2023-04-10T16:41:33.881Z,3.00
2023-04-10T16:44:03.414Z,1.23
2023-04-10T16:46:33.253Z,2.23
2023-04-10T16:49:01.717Z,1.20
2023-04-10T16:51:29.727Z,1.53
2023-04-10T16:53:57.756Z,1.53
2023-04-10T16:56:28.508Z,3.87
2023-04-10T16:58:57.621Z,1.60
2023-04-10T17:01:27.463Z,1.30
2023-04-10T17:03:55.621Z,1.00
2023-04-10T17:06:23.600Z,1.10
2023-04-10T17:08:51.507Z,1.50
2023-04-10T17:11:19.410Z,5.60
2023-04-10T17:13:47.380Z,8.00
2023-04-10T17:16:15.679Z,2.93
2023-04-10T17:18:45.252Z,1.40
2023-04-10T17:21:13.519Z,1.33
2023-04-10T17:23:41.792Z,1.40
2023-04-10T17:26:13.803Z,1.90
2023-04-10T17:28:44.447Z,1.47
2023-04-10T17:31:12.427Z,1.50
2023-04-10T17:33:41.973Z,1.83
2023-04-10T17:36:12.657Z,1.33
2023-04-10T17:38:41.169Z,1.30
2023-04-10T17:41:09.863Z,1.30
2023-04-10T17:43:37.773Z,1.40
2023-04-10T17:46:05.862Z,1.33
2023-04-10T17:48:34.552Z,1.40
2023-04-10T17:51:05.467Z,1.63
2023-04-10T17:53:34.786Z,1.50
2023-04-10T17:56:02.804Z,1.40
2023-04-10T17:58:30.979Z,1.50
2023-04-10T18:00:59.017Z,1.70
2023-04-10T18:03:27.099Z,1.13
2023-04-10T18:05:55.128Z,1.27
2023-04-10T18:08:23.024Z,1.60
2023-04-10T18:10:52.370Z,1.33
2023-04-10T18:13:20.449Z,1.40
2023-04-10T18:15:48.351Z,1.90
2023-04-10T18:18:16.427Z,1.20
2023-04-10T18:20:44.431Z,1.40
2023-04-10T18:23:12.343Z,3.00
2023-04-10T18:25:40.269Z,1.90
2023-04-10T18:28:15.305Z,0.90
2023-04-10T18:30:44.449Z,1.30
2023-04-10T18:33:12.586Z,1.17
2023-04-10T18:35:40.641Z,1.33
2023-04-10T18:38:08.621Z,1.30
2023-04-10T18:40:37.003Z,1.40
2023-04-10T18:43:04.967Z,1.87
2023-04-10T18:45:35.184Z,1.40
2023-04-10T18:48:03.231Z,1.30
2023-04-10T18:50:32.074Z,1.33
2023-04-10T18:53:02.806Z,1.77
2023-04-10T18:55:30.877Z,5.50
2023-04-10T18:57:59.000Z,2.30
2023-04-10T19:00:26.927Z,1.80
2023-04-10T19:02:56.711Z,1.40
2023-04-10T19:05:24.777Z,1.50
2023-04-10T19:08:03.035Z,1.60
2023-04-10T19:10:31.930Z,1.60
2023-04-10T19:12:59.917Z,2.43
2023-04-10T19:15:28.323Z,1.90
2023-04-10T19:17:57.766Z,1.77
2023-04-10T19:20:50.005Z,2.07
2023-04-10T19:23:14.111Z,1.63
2023-04-10T19:25:42.745Z,2.03
2023-04-10T19:28:10.707Z,1.50
2023-04-10T19:30:38.684Z,1.90
2023-04-10T19:33:08.239Z,2.17
2023-04-10T19:35:36.180Z,2.03
2023-04-10T19:38:04.106Z,1.83
2023-04-10T19:40:34.812Z,2.00
2023-04-10T19:43:02.893Z,1.87
2023-04-10T19:45:32.588Z,1.90
2023-04-10T19:48:00.847Z,2.00
2023-04-10T19:50:31.342Z,2.40
2023-04-10T19:52:59.590Z,3.63
2023-04-10T19:55:27.888Z,3.30
2023-04-10T19:57:56.049Z,2.83
2023-04-10T20:00:23.992Z,2.27
2023-04-10T20:02:52.063Z,2.33
2023-04-10T20:05:20.117Z,2.20
2023-04-10T20:07:49.517Z,2.53
2023-04-10T20:10:17.488Z,2.43
2023-04-10T20:12:45.407Z,2.07
2023-04-10T20:15:13.809Z,2.07
2023-04-10T20:17:41.798Z,1.80
2023-04-10T20:20:10.256Z,2.07
2023-04-10T20:22:38.232Z,1.97
2023-04-10T20:25:08.379Z,1.80
2023-04-10T20:27:36.346Z,1.70
2023-04-10T20:30:04.441Z,2.00
2023-04-10T20:32:32.330Z,2.10
2023-04-10T20:35:00.290Z,2.33
2023-04-10T20:37:28.223Z,1.97
2023-04-10T20:39:56.107Z,1.90
2023-04-10T20:42:25.483Z,1.93
2023-04-10T20:44:53.951Z,2.07
2023-04-10T20:47:21.873Z,1.87
2023-04-10T20:49:49.820Z,1.53
2023-04-10T20:52:17.751Z,2.10
2023-04-10T20:54:45.657Z,2.10
2023-04-10T20:57:13.595Z,1.70
2023-04-10T20:59:42.893Z,2.10
2023-04-10T21:02:10.949Z,2.17
2023-04-10T21:04:38.953Z,1.97
2023-04-10T21:07:06.869Z,2.10
2023-04-10T21:09:34.801Z,1.87
2023-04-10T21:12:02.984Z,1.93
2023-04-10T21:14:30.919Z,2.43
2023-04-10T21:17:00.318Z,2.10
2023-04-10T21:19:28.442Z,2.17
2023-04-10T21:21:57.293Z,2.10
2023-04-10T21:24:25.279Z,1.93
2023-04-10T21:26:53.201Z,2.30
2023-04-10T21:29:21.167Z,2.37
2023-04-10T21:31:50.518Z,2.27
2023-04-10T21:34:20.160Z,1.90
2023-04-10T21:36:48.053Z,2.00
2023-04-10T21:39:15.921Z,2.20
2023-04-10T21:41:45.217Z,2.10
2023-04-10T21:44:13.114Z,2.40
2023-04-10T21:46:41.025Z,2.27
2023-04-10T21:49:09.064Z,2.00
2023-04-10T21:51:38.395Z,2.27
2023-04-10T21:54:06.374Z,2.27
2023-04-10T21:56:35.682Z,2.67
2023-04-10T21:59:04.037Z,2.03
2023-04-10T22:01:32.077Z,2.17
2023-04-10T22:04:00.089Z,2.00
2023-04-10T22:06:28.146Z,2.53
2023-04-10T22:08:57.570Z,2.20
2023-04-10T22:11:25.621Z,2.23
2023-04-10T22:13:53.717Z,2.27
2023-04-10T22:16:22.922Z,2.10
2023-04-10T22:18:50.947Z,2.03
2023-04-10T22:21:18.835Z,1.83
2023-04-10T22:23:46.729Z,2.50
2023-04-10T22:26:16.049Z,1.90
2023-04-10T22:28:43.984Z,2.00
2023-04-10T22:31:15.681Z,1.80
2023-04-10T22:33:43.639Z,2.50
2023-04-10T22:36:11.895Z,2.30
2023-04-10T22:38:39.860Z,2.07
2023-04-10T22:41:08.051Z,2.23
2023-04-10T22:43:37.396Z,2.40
2023-04-10T22:46:05.446Z,2.27
2023-04-10T22:48:33.662Z,2.00
2023-04-10T22:51:01.577Z,2.30
2023-04-10T22:53:29.542Z,2.30
2023-04-10T22:55:57.499Z,2.00
2023-04-10T22:58:25.859Z,2.57
2023-04-10T23:00:55.144Z,2.30
2023-04-10T23:03:23.169Z,2.60
2023-04-10T23:05:51.232Z,2.30
2023-04-10T23:08:19.161Z,2.43
2023-04-10T23:10:47.039Z,2.07
2023-04-10T23:13:14.957Z,2.40
2023-04-10T23:15:49.267Z,2.47
2023-04-10T23:18:19.024Z,2.50
2023-04-10T23:20:47.529Z,2.27
2023-04-10T23:23:15.765Z,2.10
2023-04-10T23:25:43.742Z,1.90
2023-04-10T23:28:11.879Z,2.07
2023-04-10T23:30:40.120Z,2.07
2023-04-10T23:33:08.152Z,2.00
2023-04-10T23:35:37.622Z,2.40
2023-04-10T23:38:05.559Z,2.20
2023-04-10T23:40:33.497Z,2.23
2023-04-10T23:43:01.396Z,2.13
2023-04-10T23:45:29.350Z,2.10
2023-04-10T23:47:57.419Z,1.83
2023-04-10T23:50:25.433Z,2.00
2023-04-10T23:52:54.759Z,1.77
2023-04-10T23:55:22.858Z,1.47
2023-04-10T23:57:50.810Z,2.10
